Time;durP1;ratioP1;P1;durP2;ratioP2;P2;SDS_P1;SDS_P2;PMS_P1;PMS_P2;Temp;Humidity;BMP_temperature;BMP_pressure;BME280_temperature;BME280_humidity;BME280_pressure;Samples;Min_cycle;Max_cycle;Signal;HPM_P1;HPM_P2
2022/01/31 00:01:23;;;;;;;16.15;2.30;;;;;;;;;;5042753;28;20410;-83
2022/01/31 00:03:48;;;;;;;19.25;2.20;;;;;;;;;;5043060;28;20025;-83
2022/01/31 00:06:14;;;;;;;17.40;1.98;;;;;;;;;;5025087;28;20124;-83
2022/01/31 00:08:40;;;;;;;19.05;2.53;;;;;;;;;;5043051;28;20483;-83
2022/01/31 00:11:05;;;;;;;17.48;2.45;;;;;;;;;;5042424;28;20389;-83
2022/01/31 00:13:37;;;;;;;18.17;2.53;;;;;;;;;;5042845;28;20116;-80
2022/01/31 00:16:04;;;;;;;17.25;3.13;;;;;;;;;;5025569;28;20411;-81
2022/01/31 00:18:29;;;;;;;19.38;2.38;;;;;;;;;;5043885;28;20128;-84
2022/01/31 00:20:54;;;;;;;19.48;3.28;;;;;;;;;;5045782;28;20030;-83
2022/01/31 00:23:20;;;;;;;16.35;2.50;;;;;;;;;;5044020;28;20030;-82
2022/01/31 00:25:45;;;;;;;19.10;2.42;;;;;;;;;;5043503;28;20029;-83
2022/01/31 00:28:10;;;;;;;16.25;2.50;;;;;;;;;;5026196;28;20025;-83
2022/01/31 00:30:35;;;;;;;12.38;2.08;;;;;;;;;;5025082;28;20025;-82
2022/01/31 00:33:01;;;;;;;16.67;2.40;;;;;;;;;;5025045;28;20025;-81
2022/01/31 00:35:26;;;;;;;25.35;3.40;;;;;;;;;;5042958;28;20029;-82
2022/01/31 00:37:52;;;;;;;12.52;2.13;;;;;;;;;;5023229;28;20613;-83
2022/01/31 00:40:18;;;;;;;21.20;2.38;;;;;;;;;;5042824;28;20026;-83
2022/01/31 00:42:43;;;;;;;19.73;2.38;;;;;;;;;;5023768;28;20141;-83
2022/01/31 00:45:13;;;;;;;19.33;2.80;;;;;;;;;;5041361;28;20013;-83
2022/01/31 00:47:41;;;;;;;15.30;2.30;;;;;;;;;;5024037;28;20030;-83
2022/01/31 00:50:10;;;;;;;12.38;2.67;;;;;;;;;;5042080;28;20044;-83
2022/01/31 00:52:39;;;;;;;14.27;2.40;;;;;;;;;;5043008;28;20397;-83
2022/01/31 00:55:06;;;;;;;19.63;2.70;;;;;;;;;;5025907;28;20029;-84
2022/01/31 00:57:32;;;;;;;12.52;2.00;;;;;;;;;;5023892;28;20025;-80
2022/01/31 00:59:57;;;;;;;18.95;3.15;;;;;;;;;;5042368;28;20032;-81
2022/01/31 01:02:23;;;;;;;19.10;2.85;;;;;;;;;;5025197;28;20111;-83
2022/01/31 01:04:49;;;;;;;16.67;2.63;;;;;;;;;;5023217;28;20029;-83
2022/01/31 01:07:15;;;;;;;16.92;2.15;;;;;;;;;;5040592;28;20395;-82
2022/01/31 01:09:44;;;;;;;13.82;2.25;;;;;;;;;;5040331;28;20439;-83
2022/01/31 01:12:11;;;;;;;17.27;2.60;;;;;;;;;;5041561;28;20026;-82
2022/01/31 01:14:36;;;;;;;14.57;2.53;;;;;;;;;;5040509;28;20094;-84
2022/01/31 01:17:02;;;;;;;17.02;2.50;;;;;;;;;;5022725;28;20085;-84
2022/01/31 01:19:27;;;;;;;14.65;2.65;;;;;;;;;;5040386;28;20033;-84
2022/01/31 01:21:53;;;;;;;20.58;3.47;;;;;;;;;;5041880;28;20421;-83
2022/01/31 01:24:18;;;;;;;12.38;2.35;;;;;;;;;;5040837;28;20389;-84
2022/01/31 01:26:43;;;;;;;19.40;2.47;;;;;;;;;;5041953;28;20075;-82
2022/01/31 01:29:10;;;;;;;19.95;2.45;;;;;;;;;;5022731;28;20375;-83
2022/01/31 01:31:35;;;;;;;12.02;2.25;;;;;;;;;;5041196;28;20581;-82
2022/01/31 01:34:00;;;;;;;20.45;2.80;;;;;;;;;;5022998;28;20018;-82
2022/01/31 01:36:26;;;;;;;21.27;3.33;;;;;;;;;;5040954;28;20032;-85
2022/01/31 01:38:51;;;;;;;26.85;2.92;;;;;;;;;;5041351;28;20040;-83
2022/01/31 01:41:16;;;;;;;12.88;2.25;;;;;;;;;;5039998;28;20672;-81
2022/01/31 01:43:42;;;;;;;16.48;2.22;;;;;;;;;;5040438;28;20033;-82
2022/01/31 01:46:07;;;;;;;19.73;2.60;;;;;;;;;;5022439;28;20071;-83
2022/01/31 01:48:33;;;;;;;17.10;2.58;;;;;;;;;;5022434;28;20025;-83
2022/01/31 01:50:59;;;;;;;19.42;2.80;;;;;;;;;;5040921;28;20029;-82
2022/01/31 01:53:25;;;;;;;20.38;2.30;;;;;;;;;;5022265;28;20029;-82
2022/01/31 01:55:52;;;;;;;17.55;2.92;;;;;;;;;;5022482;28;20402;-82
2022/01/31 01:58:19;;;;;;;16.80;2.60;;;;;;;;;;5040038;28;20116;-83
2022/01/31 02:00:58;;;;;;;17.17;2.38;;;;;;;;;;5039026;28;20639;-83
2022/01/31 02:03:27;;;;;;;17.63;2.78;;;;;;;;;;5040981;28;20039;-82
2022/01/31 02:05:52;;;;;;;14.90;2.35;;;;;;;;;;5040976;28;20025;-82
2022/01/31 02:08:18;;;;;;;15.90;2.60;;;;;;;;;;5022575;28;20059;-83
2022/01/31 02:10:44;;;;;;;18.25;2.17;;;;;;;;;;5041364;28;20064;-84
2022/01/31 02:13:10;;;;;;;15.68;2.65;;;;;;;;;;5039654;28;20703;-84
2022/01/31 02:15:36;;;;;;;18.42;2.20;;;;;;;;;;5020331;28;20033;-84
2022/01/31 02:18:03;;;;;;;20.58;2.70;;;;;;;;;;5040068;28;20025;-82
2022/01/31 02:20:29;;;;;;;22.15;3.08;;;;;;;;;;5040069;28;20026;-83
2022/01/31 02:22:54;;;;;;;16.08;2.45;;;;;;;;;;5039102;28;20059;-84
2022/01/31 02:25:20;;;;;;;14.65;2.40;;;;;;;;;;5021470;28;20136;-84
2022/01/31 02:27:45;;;;;;;20.80;2.55;;;;;;;;;;5020941;28;20025;-83
2022/01/31 02:30:14;;;;;;;11.63;2.88;;;;;;;;;;5021533;28;20036;-82
2022/01/31 02:32:39;;;;;;;20.33;2.75;;;;;;;;;;5038247;28;20029;-83
2022/01/31 02:35:06;;;;;;;18.25;3.15;;;;;;;;;;5020700;28;20101;-83
2022/01/31 02:37:32;;;;;;;13.38;2.80;;;;;;;;;;5018401;28;20152;-81
2022/01/31 02:39:57;;;;;;;24.48;3.47;;;;;;;;;;5019312;28;20065;-84
2022/01/31 02:42:23;;;;;;;18.60;2.97;;;;;;;;;;5036619;28;20363;-83
2022/01/31 02:44:49;;;;;;;19.92;2.95;;;;;;;;;;5036751;28;20048;-82
2022/01/31 02:47:26;;;;;;;17.92;3.00;;;;;;;;;;5042866;28;20025;-84
2022/01/31 02:49:57;;;;;;;12.95;2.30;;;;;;;;;;5038796;28;20029;-83
2022/01/31 02:52:25;;;;;;;20.98;3.15;;;;;;;;;;5021652;28;20041;-83
2022/01/31 02:54:50;;;;;;;12.25;2.30;;;;;;;;;;5037587;28;20044;-84
2022/01/31 02:57:16;;;;;;;15.43;2.55;;;;;;;;;;5039399;28;20029;-83
2022/01/31 02:59:41;;;;;;;15.05;2.20;;;;;;;;;;5037789;28;20122;-83
2022/01/31 03:02:06;;;;;;;18.40;2.70;;;;;;;;;;5037116;28;20029;-83
2022/01/31 03:04:32;;;;;;;14.82;2.38;;;;;;;;;;5037332;28;20033;-84
2022/01/31 03:06:58;;;;;;;12.18;2.55;;;;;;;;;;5037101;28;20024;-83
2022/01/31 03:09:23;;;;;;;17.40;2.63;;;;;;;;;;5037320;28;20029;-83
2022/01/31 03:11:48;;;;;;;24.65;2.75;;;;;;;;;;5037702;28;20029;-83
2022/01/31 03:14:18;;;;;;;22.00;2.70;;;;;;;;;;5038747;28;20026;-82
2022/01/31 03:16:44;;;;;;;20.88;2.75;;;;;;;;;;5037837;28;20026;-84
2022/01/31 03:19:10;;;;;;;20.17;3.35;;;;;;;;;;5036613;28;20032;-83
2022/01/31 03:21:36;;;;;;;15.48;2.10;;;;;;;;;;5022044;28;20026;-83
2022/01/31 03:24:04;;;;;;;19.50;2.67;;;;;;;;;;5022969;28;20037;-82
2022/01/31 03:26:29;;;;;;;11.18;2.00;;;;;;;;;;5041267;28;20359;-84
2022/01/31 03:28:54;;;;;;;11.32;2.40;;;;;;;;;;5040393;28;20117;-82
2022/01/31 03:31:21;;;;;;;25.50;2.88;;;;;;;;;;5042485;28;20351;-82
2022/01/31 03:33:51;;;;;;;20.48;3.38;;;;;;;;;;5042480;28;20056;-83
2022/01/31 03:36:17;;;;;;;16.70;2.70;;;;;;;;;;5040350;28;20029;-82
2022/01/31 03:38:43;;;;;;;15.77;2.70;;;;;;;;;;5022704;28;20029;-83
2022/01/31 03:41:10;;;;;;;17.92;2.58;;;;;;;;;;5022755;28;20033;-83
2022/01/31 03:43:35;;;;;;;18.27;2.78;;;;;;;;;;5024203;28;20383;-83
2022/01/31 03:46:00;;;;;;;21.55;2.47;;;;;;;;;;5042893;28;20052;-83
2022/01/31 03:48:28;;;;;;;18.35;2.65;;;;;;;;;;5027285;28;20032;-84
2022/01/31 03:50:55;;;;;;;15.27;2.53;;;;;;;;;;5027959;28;20021;-84
2022/01/31 03:53:20;;;;;;;19.88;2.70;;;;;;;;;;5044972;28;20032;-81
2022/01/31 03:55:45;;;;;;;18.15;3.10;;;;;;;;;;5044906;28;20029;-84
2022/01/31 03:58:11;;;;;;;21.35;2.97;;;;;;;;;;5044672;28;20025;-83
2022/01/31 04:00:36;;;;;;;19.60;2.70;;;;;;;;;;5025468;28;20109;-83
2022/01/31 04:03:02;;;;;;;20.77;2.42;;;;;;;;;;5025660;28;20021;-83
2022/01/31 04:05:28;;;;;;;17.45;2.47;;;;;;;;;;5044303;28;20029;-83
2022/01/31 04:07:53;;;;;;;14.57;2.75;;;;;;;;;;5044280;28;20017;-85
2022/01/31 04:10:18;;;;;;;20.48;2.83;;;;;;;;;;5025995;28;20452;-84
2022/01/31 04:12:44;;;;;;;3.38;1.13;;;;;;;;;;5026184;28;20033;-83
2022/01/31 04:15:09;;;;;;;21.23;2.65;;;;;;;;;;5025803;28;20034;-83
2022/01/31 04:17:37;;;;;;;21.92;2.80;;;;;;;;;;5024382;28;20056;-83
2022/01/31 04:20:03;;;;;;;14.20;2.67;;;;;;;;;;5042592;28;20030;-83
2022/01/31 04:22:31;;;;;;;18.35;2.88;;;;;;;;;;5044259;28;20044;-83
2022/01/31 04:25:01;;;;;;;15.10;2.90;;;;;;;;;;5043445;28;20061;-84
2022/01/31 04:27:31;;;;;;;16.80;2.20;;;;;;;;;;5043419;28;20044;-84
2022/01/31 04:29:57;;;;;;;17.08;2.80;;;;;;;;;;5025443;28;20532;-84
2022/01/31 04:32:22;;;;;;;13.27;2.40;;;;;;;;;;5043217;28;20045;-84
2022/01/31 04:34:47;;;;;;;19.00;2.83;;;;;;;;;;5026043;28;20113;-84
2022/01/31 04:37:13;;;;;;;18.25;2.65;;;;;;;;;;5043710;28;20030;-84
2022/01/31 04:39:38;;;;;;;18.63;2.55;;;;;;;;;;5043598;28;20033;-84
2022/01/31 04:42:04;;;;;;;16.85;3.05;;;;;;;;;;5043297;28;20113;-83
2022/01/31 04:44:30;;;;;;;19.02;2.45;;;;;;;;;;5026387;28;20021;-84
2022/01/31 04:46:55;;;;;;;14.77;2.38;;;;;;;;;;5043789;28;20484;-85
2022/01/31 04:49:21;;;;;;;19.95;2.75;;;;;;;;;;5025459;28;20084;-85
2022/01/31 04:51:47;;;;;;;23.05;2.83;;;;;;;;;;5041587;28;20033;-85
2022/01/31 04:54:12;;;;;;;18.83;2.83;;;;;;;;;;5042611;28;20029;-84
2022/01/31 04:56:40;;;;;;;24.20;2.53;;;;;;;;;;5025535;28;20055;-83
2022/01/31 04:59:06;;;;;;;15.35;2.50;;;;;;;;;;5042751;28;20059;-84
2022/01/31 05:01:31;;;;;;;26.50;3.08;;;;;;;;;;5043526;28;20064;-83
2022/01/31 05:03:57;;;;;;;22.23;2.97;;;;;;;;;;5025349;28;20061;-84
2022/01/31 05:06:29;;;;;;;26.48;3.33;;;;;;;;;;5025505;28;20413;-83
2022/01/31 05:08:55;;;;;;;16.73;2.70;;;;;;;;;;5042302;28;20056;-83
2022/01/31 05:11:20;;;;;;;26.80;3.08;;;;;;;;;;5024550;28;20029;-83
2022/01/31 05:13:46;;;;;;;15.13;3.13;;;;;;;;;;5042573;28;20396;-84
2022/01/31 05:16:11;;;;;;;21.60;2.50;;;;;;;;;;5008848;28;1010424;-83
2022/01/31 05:18:36;;;;;;;15.95;2.60;;;;;;;;;;5033439;28;20025;-85
2022/01/31 05:21:04;;;;;;;22.50;2.38;;;;;;;;;;5033603;28;20025;-85
2022/01/31 05:23:29;;;;;;;28.92;2.90;;;;;;;;;;5033159;28;20025;-85
2022/01/31 05:25:55;;;;;;;24.40;2.75;;;;;;;;;;5031783;28;20091;-84
2022/01/31 05:28:23;;;;;;;23.83;3.40;;;;;;;;;;5050103;28;20021;-85
2022/01/31 05:30:48;;;;;;;22.73;2.97;;;;;;;;;;5048916;28;20113;-84
2022/01/31 05:33:13;;;;;;;17.00;2.90;;;;;;;;;;5049629;28;20029;-84
2022/01/31 05:35:39;;;;;;;28.33;3.75;;;;;;;;;;5049068;28;20025;-84
2022/01/31 05:38:04;;;;;;;13.30;2.90;;;;;;;;;;5049225;28;20044;-85
2022/01/31 05:40:30;;;;;;;20.35;3.05;;;;;;;;;;5049743;28;20030;-84
2022/01/31 05:42:56;;;;;;;17.15;2.55;;;;;;;;;;5031200;28;20025;-84
2022/01/31 05:45:21;;;;;;;17.73;2.92;;;;;;;;;;5048044;28;20074;-84
2022/01/31 05:47:46;;;;;;;17.27;2.60;;;;;;;;;;5049629;28;20029;-85
2022/01/31 05:50:12;;;;;;;15.95;2.72;;;;;;;;;;5032871;28;20021;-84
2022/01/31 05:52:37;;;;;;;18.58;2.55;;;;;;;;;;5033078;28;20041;-85
2022/01/31 05:55:03;;;;;;;17.17;2.10;;;;;;;;;;5032101;28;20021;-85
2022/01/31 05:57:29;;;;;;;18.60;2.53;;;;;;;;;;5049494;28;20022;-84
2022/01/31 05:59:54;;;;;;;17.50;3.00;;;;;;;;;;5030175;28;20067;-84
2022/01/31 06:02:19;;;;;;;17.60;2.85;;;;;;;;;;5049797;28;20017;-84
2022/01/31 06:04:44;;;;;;;21.10;2.72;;;;;;;;;;5032631;28;20025;-85
2022/01/31 06:07:10;;;;;;;20.05;2.85;;;;;;;;;;5032309;28;20018;-84
2022/01/31 06:09:36;;;;;;;19.63;3.35;;;;;;;;;;5051114;28;20022;-84
2022/01/31 06:12:03;;;;;;;25.75;3.60;;;;;;;;;;5032292;28;20016;-84
2022/01/31 06:14:30;;;;;;;19.10;3.08;;;;;;;;;;5031975;28;20028;-83
2022/01/31 06:16:55;;;;;;;19.10;3.22;;;;;;;;;;5044417;28;20075;-84
2022/01/31 06:19:20;;;;;;;22.10;3.15;;;;;;;;;;5025352;28;20018;-84
2022/01/31 06:21:45;;;;;;;27.90;3.17;;;;;;;;;;5042142;28;20034;-84
2022/01/31 06:24:13;;;;;;;14.77;2.55;;;;;;;;;;5023687;28;20025;-82
2022/01/31 06:26:38;;;;;;;15.15;2.38;;;;;;;;;;5024351;28;20118;-83
2022/01/31 06:29:04;;;;;;;23.17;3.20;;;;;;;;;;5024286;28;20482;-84
2022/01/31 06:31:30;;;;;;;15.20;2.95;;;;;;;;;;5041531;28;20029;-84
2022/01/31 06:33:56;;;;;;;22.92;3.50;;;;;;;;;;5043098;28;20033;-84
2022/01/31 06:36:24;;;;;;;19.85;2.95;;;;;;;;;;5046614;28;20040;-84
2022/01/31 06:38:50;;;;;;;20.27;3.22;;;;;;;;;;5046448;28;20163;-84
2022/01/31 06:41:19;;;;;;;13.88;2.95;;;;;;;;;;5042571;28;20025;-85
2022/01/31 06:43:45;;;;;;;17.92;3.58;;;;;;;;;;5025933;28;20030;-83
2022/01/31 06:46:10;;;;;;;23.98;3.50;;;;;;;;;;5044729;28;20071;-84
2022/01/31 06:48:35;;;;;;;19.77;3.35;;;;;;;;;;5042296;28;20047;-84
2022/01/31 06:51:01;;;;;;;16.05;3.20;;;;;;;;;;5024420;28;20068;-84
2022/01/31 06:53:28;;;;;;;11.73;2.90;;;;;;;;;;5024161;28;20021;-84
2022/01/31 06:55:57;;;;;;;17.35;3.47;;;;;;;;;;5027452;28;20089;-83
2022/01/31 06:58:24;;;;;;;21.05;3.35;;;;;;;;;;5046073;28;20033;-84
2022/01/31 07:00:49;;;;;;;13.38;2.83;;;;;;;;;;5027977;28;20029;-83
2022/01/31 07:03:14;;;;;;;22.67;3.40;;;;;;;;;;5047723;28;20113;-84
2022/01/31 07:05:41;;;;;;;13.90;2.58;;;;;;;;;;5028636;28;20120;-84
2022/01/31 07:08:06;;;;;;;23.63;3.15;;;;;;;;;;5030581;28;20032;-85
2022/01/31 07:10:32;;;;;;;21.95;3.75;;;;;;;;;;5030047;28;20026;-83
2022/01/31 07:12:58;;;;;;;17.27;3.67;;;;;;;;;;5048461;28;20025;-83
2022/01/31 07:15:24;;;;;;;22.15;3.75;;;;;;;;;;5048724;28;20112;-83
2022/01/31 07:17:49;;;;;;;26.38;4.05;;;;;;;;;;5046935;28;20608;-83
2022/01/31 07:20:23;;;;;;;23.23;3.13;;;;;;;;;;5028902;28;20120;-84
2022/01/31 07:22:55;;;;;;;13.82;3.22;;;;;;;;;;5050893;28;20025;-85
2022/01/31 07:25:34;;;;;;;19.58;3.45;;;;;;;;;;5030779;28;20052;-84
2022/01/31 07:28:00;;;;;;;24.60;3.67;;;;;;;;;;5030010;28;20025;-84
2022/01/31 07:30:25;;;;;;;16.73;3.47;;;;;;;;;;5048384;28;20029;-83
2022/01/31 07:32:50;;;;;;;19.00;3.45;;;;;;;;;;5047329;28;20025;-85
2022/01/31 07:35:16;;;;;;;17.27;3.15;;;;;;;;;;5047139;28;20029;-84
2022/01/31 07:37:41;;;;;;;17.42;4.22;;;;;;;;;;5047809;28;20052;-84
2022/01/31 07:40:07;;;;;;;15.73;3.15;;;;;;;;;;5047319;28;20025;-84
2022/01/31 07:42:32;;;;;;;18.40;3.10;;;;;;;;;;5048872;28;20022;-85
2022/01/31 07:44:58;;;;;;;22.10;3.55;;;;;;;;;;5049163;28;20093;-84
2022/01/31 07:47:23;;;;;;;16.33;3.25;;;;;;;;;;5032282;28;20132;-85
2022/01/31 07:49:51;;;;;;;15.60;3.35;;;;;;;;;;5049312;28;20479;-85
2022/01/31 07:52:16;;;;;;;8.80;2.97;;;;;;;;;;5049181;28;20022;-83
2022/01/31 07:54:43;;;;;;;16.00;3.08;;;;;;;;;;5031505;28;20025;-84
2022/01/31 07:57:08;;;;;;;19.85;4.30;;;;;;;;;;5049065;28;20024;-85
2022/01/31 07:59:34;;;;;;;16.27;3.55;;;;;;;;;;5028702;28;20021;-86
2022/01/31 08:01:59;;;;;;;19.70;3.15;;;;;;;;;;5028621;28;20052;-86
2022/01/31 08:04:24;;;;;;;18.10;3.35;;;;;;;;;;5049622;28;20029;-84
2022/01/31 08:06:49;;;;;;;16.13;3.40;;;;;;;;;;5029711;28;20482;-85
2022/01/31 08:09:15;;;;;;;14.68;3.38;;;;;;;;;;5028959;28;20524;-84
2022/01/31 08:11:40;;;;;;;14.05;3.15;;;;;;;;;;5047368;28;20033;-85
2022/01/31 08:14:07;;;;;;;18.55;3.88;;;;;;;;;;5030372;28;20079;-85
2022/01/31 08:16:34;;;;;;;15.90;3.63;;;;;;;;;;5046463;28;20053;-84
2022/01/31 08:18:59;;;;;;;19.95;3.75;;;;;;;;;;5029752;28;20029;-83
2022/01/31 08:21:24;;;;;;;23.85;3.63;;;;;;;;;;5029999;28;20167;-83
2022/01/31 08:23:50;;;;;;;15.77;2.85;;;;;;;;;;5041556;28;20017;-80
2022/01/31 08:26:17;;;;;;;19.50;3.65;;;;;;;;;;5017989;28;20483;-76
2022/01/31 08:29:36;;;;;;;17.25;3.20;;;;;;;;;;5035194;28;20083;-77
2022/01/31 08:31:34;;;;;;;19.20;3.00;;;;;;;;;;5020858;28;20048;-76
2022/01/31 08:34:06;;;;;;;23.58;3.40;;;;;;;;;;5034905;28;20367;-77
2022/01/31 08:36:36;;;;;;;19.33;3.10;;;;;;;;;;5017277;28;20470;-77
2022/01/31 08:39:08;;;;;;;19.55;3.20;;;;;;;;;;5039030;28;20034;-82
2022/01/31 08:41:36;;;;;;;17.00;3.08;;;;;;;;;;5049165;28;20027;-83
2022/01/31 08:44:02;;;;;;;14.02;2.88;;;;;;;;;;5030047;28;20045;-83
2022/01/31 08:46:28;;;;;;;17.58;2.40;;;;;;;;;;5032382;28;20064;-83
2022/01/31 08:48:55;;;;;;;10.82;2.90;;;;;;;;;;5029504;28;20021;-82
2022/01/31 08:51:20;;;;;;;16.45;2.78;;;;;;;;;;5027392;28;20048;-84
2022/01/31 08:53:48;;;;;;;17.27;2.60;;;;;;;;;;5026161;28;20025;-85
2022/01/31 08:56:13;;;;;;;9.95;2.22;;;;;;;;;;5030849;28;20084;-84
2022/01/31 08:58:49;;;;;;;8.75;2.28;;;;;;;;;;5047830;28;20099;-85
2022/01/31 09:01:19;;;;;;;9.38;2.55;;;;;;;;;;5031408;28;20441;-84
2022/01/31 09:06:21;;;;;;;7.13;1.83;;;;;;;;;;5046380;28;20032;-84
2022/01/31 09:08:47;;;;;;;11.23;2.20;;;;;;;;;;5029014;28;20078;-85
2022/01/31 09:11:13;;;;;;;16.08;2.40;;;;;;;;;;5044879;28;20021;-84
2022/01/31 09:13:38;;;;;;;11.30;2.47;;;;;;;;;;5026934;28;20067;-86
2022/01/31 09:16:04;;;;;;;12.82;2.47;;;;;;;;;;5028546;28;20394;-85
2022/01/31 09:18:30;;;;;;;11.02;2.35;;;;;;;;;;5029680;28;20093;-85
2022/01/31 09:20:57;;;;;;;9.23;2.35;;;;;;;;;;5048563;28;20121;-85
2022/01/31 09:23:23;;;;;;;12.48;2.40;;;;;;;;;;5030883;28;20430;-84
2022/01/31 09:25:48;;;;;;;13.75;2.08;;;;;;;;;;5047538;28;20022;-84
2022/01/31 09:28:17;;;;;;;11.82;1.92;;;;;;;;;;5048666;28;20025;-85
2022/01/31 09:30:44;;;;;;;10.55;2.25;;;;;;;;;;5028368;28;20475;-84
2022/01/31 09:33:11;;;;;;;15.13;2.20;;;;;;;;;;5025920;28;20021;-84
2022/01/31 09:35:36;;;;;;;10.13;2.22;;;;;;;;;;5044432;28;20032;-85
2022/01/31 09:38:03;;;;;;;7.25;2.00;;;;;;;;;;5027617;28;20026;-84
2022/01/31 09:40:29;;;;;;;11.20;2.55;;;;;;;;;;5045429;28;20437;-83
2022/01/31 09:43:10;;;;;;;8.02;2.33;;;;;;;;;;5027670;28;20022;-85
2022/01/31 09:45:54;;;;;;;13.13;2.55;;;;;;;;;;5045802;28;20040;-84
2022/01/31 09:48:43;;;;;;;;;;;;;;;;;;5027561;28;20021;-85
2022/01/31 09:51:22;;;;;;;10.73;2.15;;;;;;;;;;5043661;28;20421;-84
2022/01/31 09:53:50;;;;;;;9.00;2.15;;;;;;;;;;5027499;28;20029;-85
2022/01/31 09:56:21;;;;;;;8.43;2.05;;;;;;;;;;5026841;28;20047;-85
2022/01/31 09:58:48;;;;;;;13.02;2.50;;;;;;;;;;5044348;28;20528;-84
2022/01/31 10:01:15;;;;;;;8.43;2.45;;;;;;;;;;5045097;28;20418;-83
2022/01/31 10:03:48;;;;;;;8.85;2.30;;;;;;;;;;5044675;28;20085;-84
2022/01/31 10:06:21;;;;;;;7.28;1.98;;;;;;;;;;5045128;28;20137;-85
2022/01/31 10:08:48;;;;;;;9.77;1.95;;;;;;;;;;5026403;28;20021;-86
2022/01/31 10:11:27;;;;;;;8.98;1.98;;;;;;;;;;5025568;28;20025;-84
2022/01/31 10:16:44;;;;;;;20.17;9.90;;;;;;;;;;5042890;28;20055;-85
2022/01/31 10:19:10;;;;;;;10.73;2.33;;;;;;;;;;5042645;28;20108;-85
2022/01/31 10:22:04;;;;;;;9.13;2.53;;;;;;;;;;5024972;28;20025;-85
2022/01/31 10:24:32;;;;;;;7.22;2.20;;;;;;;;;;5042753;28;20038;-85
2022/01/31 10:27:06;;;;;;;7.50;2.35;;;;;;;;;;5043360;28;20033;-85
2022/01/31 10:29:32;;;;;;;9.02;2.38;;;;;;;;;;5042637;28;20045;-86
2022/01/31 10:32:17;;;;;;;9.70;2.50;;;;;;;;;;5025426;28;20033;-85
2022/01/31 10:34:51;;;;;;;8.10;2.13;;;;;;;;;;5044512;28;20025;-85
2022/01/31 10:37:18;;;;;;;10.20;3.10;;;;;;;;;;5042607;28;20021;-85
2022/01/31 10:45:35;;;;;;;10.23;2.20;;;;;;;;;;5042535;28;20447;-85
2022/01/31 10:53:49;;;;;;;9.52;2.17;;;;;;;;;;5042156;28;20033;-84
2022/01/31 10:56:16;;;;;;;10.85;2.65;;;;;;;;;;5041804;28;20025;-85
2022/01/31 10:58:59;;;;;;;9.27;2.42;;;;;;;;;;5042905;28;20030;-85
2022/01/31 11:01:27;;;;;;;8.27;2.67;;;;;;;;;;5026270;28;20524;-85
2022/01/31 11:03:53;;;;;;;12.80;3.08;;;;;;;;;;5027785;28;20479;-85
2022/01/31 11:06:20;;;;;;;13.60;3.08;;;;;;;;;;5028104;28;20049;-86
2022/01/31 11:08:46;;;;;;;7.72;2.17;;;;;;;;;;5027978;28;20063;-84
2022/01/31 11:11:12;;;;;;;9.20;2.50;;;;;;;;;;5028880;28;20045;-86
2022/01/31 11:13:38;;;;;;;13.85;2.20;;;;;;;;;;5045445;28;20032;-85
2022/01/31 11:16:06;;;;;;;10.18;2.38;;;;;;;;;;5025706;28;20029;-85
2022/01/31 11:18:33;;;;;;;9.63;2.22;;;;;;;;;;5027227;28;20022;-85
2022/01/31 11:21:02;;;;;;;10.77;2.75;;;;;;;;;;5044298;28;20028;-85
2022/01/31 11:23:29;;;;;;;5.75;2.28;;;;;;;;;;5043907;28;20017;-85
2022/01/31 11:26:00;;;;;;;12.68;2.35;;;;;;;;;;5050926;28;20025;-85
2022/01/31 11:28:31;;;;;;;7.55;2.47;;;;;;;;;;5041230;28;20100;-84
2022/01/31 11:30:57;;;;;;;11.07;2.80;;;;;;;;;;5042339;28;20057;-85
2022/01/31 11:33:23;;;;;;;8.93;2.45;;;;;;;;;;5041326;28;20040;-85
2022/01/31 11:35:49;;;;;;;11.50;2.50;;;;;;;;;;5023408;28;20036;-86
2022/01/31 11:38:17;;;;;;;9.45;2.58;;;;;;;;;;5022686;28;20109;-86
2022/01/31 11:40:44;;;;;;;11.30;2.80;;;;;;;;;;5022195;28;20052;-85
2022/01/31 11:43:11;;;;;;;11.13;2.95;;;;;;;;;;5024859;28;20030;-85
2022/01/31 11:45:40;;;;;;;9.57;2.85;;;;;;;;;;5025626;28;20047;-85
2022/01/31 11:48:18;;;;;;;6.88;2.13;;;;;;;;;;5025141;28;20025;-86
2022/01/31 11:50:52;;;;;;;7.32;2.42;;;;;;;;;;5026405;28;20486;-86
2022/01/31 11:53:30;;;;;;;8.10;2.85;;;;;;;;;;5042734;28;20021;-86
2022/01/31 11:56:00;;;;;;;6.88;2.65;;;;;;;;;;5026931;28;20021;-85
2022/01/31 11:58:26;;;;;;;8.27;2.83;;;;;;;;;;5026881;28;20471;-85
2022/01/31 12:00:59;;;;;;;5.63;2.63;;;;;;;;;;5026376;28;20029;-84
2022/01/31 12:03:26;;;;;;;6.93;2.40;;;;;;;;;;5027439;28;20025;-84
2022/01/31 12:05:53;;;;;;;6.38;2.30;;;;;;;;;;5046216;28;20053;-85
2022/01/31 12:08:22;;;;;;;4.70;2.20;;;;;;;;;;5027769;28;20033;-85
2022/01/31 12:10:54;;;;;;;8.15;2.28;;;;;;;;;;5044560;28;20025;-85
2022/01/31 12:13:42;;;;;;;6.28;2.17;;;;;;;;;;5027020;28;20021;-85
2022/01/31 12:16:44;;;;;;;4.20;2.20;;;;;;;;;;5026348;28;20498;-84
2022/01/31 12:19:49;;;;;;;6.50;2.40;;;;;;;;;;5026158;28;20025;-87
2022/01/31 12:22:51;;;;;;;6.80;2.03;;;;;;;;;;5024880;28;20029;-85
2022/01/31 12:25:23;;;;;;;3.63;1.75;;;;;;;;;;4991075;28;20044;-85
2022/01/31 12:27:49;;;;;;;6.50;2.20;;;;;;;;;;5040594;28;20029;-84
2022/01/31 12:30:50;;;;;;;5.38;2.30;;;;;;;;;;5043560;28;20022;-85
2022/01/31 12:33:44;;;;;;;5.07;2.40;;;;;;;;;;4941963;29;20032;-85
2022/01/31 12:36:12;;;;;;;;;;;;;;;;;;5022981;28;20037;-84
2022/01/31 12:38:37;;;;;;;4.05;2.10;;;;;;;;;;5041372;28;19913;-86
2022/01/31 12:41:33;;;;;;;4.78;2.05;;;;;;;;;;5040338;28;20041;-84
2022/01/31 12:44:29;;;;;;;6.43;2.00;;;;;;;;;;5041116;28;20032;-83
2022/01/31 12:47:16;;;;;;;2.33;1.60;;;;;;;;;;5022557;28;20112;-85
2022/01/31 12:49:42;;;;;;;2.30;1.60;;;;;;;;;;5042002;28;20025;-86
2022/01/31 12:52:08;;;;;;;4.93;1.70;;;;;;;;;;5040375;28;20041;-84
2022/01/31 12:54:38;;;;;;;2.67;1.48;;;;;;;;;;5038413;28;20022;-84
2022/01/31 12:57:10;;;;;;;2.33;1.45;;;;;;;;;;5022100;28;20021;-85
2022/01/31 12:59:40;;;;;;;3.15;1.40;;;;;;;;;;5022732;28;20129;-85
2022/01/31 13:02:08;;;;;;;5.63;1.67;;;;;;;;;;5020503;28;20087;-84
2022/01/31 13:04:34;;;;;;;1.77;1.08;;;;;;;;;;5039337;28;20052;-85
2022/01/31 13:07:01;;;;;;;1.17;0.88;;;;;;;;;;5037667;28;20331;-86
2022/01/31 13:09:35;;;;;;;2.15;0.93;;;;;;;;;;5020141;28;20517;-84
2022/01/31 13:12:05;;;;;;;;;;;;;;;;;;5019873;28;20044;-86
2022/01/31 13:14:39;;;;;;;1.60;1.05;;;;;;;;;;5037407;28;20267;-84
2022/01/31 13:17:13;;;;;;;0.93;0.60;;;;;;;;;;5037245;28;20022;-84
2022/01/31 13:19:53;;;;;;;1.75;0.90;;;;;;;;;;5038101;28;20025;-85
2022/01/31 13:22:31;;;;;;;2.00;1.20;;;;;;;;;;5037616;28;20029;-83
2022/01/31 13:24:59;;;;;;;1.52;1.10;;;;;;;;;;5036994;28;20028;-84
2022/01/31 13:27:42;;;;;;;2.60;1.20;;;;;;;;;;5018830;28;20041;-84
2022/01/31 13:30:15;;;;;;;1.60;1.00;;;;;;;;;;5036993;28;20032;-84
2022/01/31 13:32:40;;;;;;;1.30;1.00;;;;;;;;;;5018779;28;20033;-84
2022/01/31 13:35:17;;;;;;;1.38;1.02;;;;;;;;;;5018387;28;20037;-85
2022/01/31 13:37:44;;;;;;;1.25;1.15;;;;;;;;;;5019265;28;20455;-85
2022/01/31 13:40:11;;;;;;;2.05;1.20;;;;;;;;;;5018561;28;20021;-83
2022/01/31 13:42:41;;;;;;;1.02;0.93;;;;;;;;;;5020687;28;20025;-84
2022/01/31 13:45:13;;;;;;;1.95;1.30;;;;;;;;;;5024353;28;20083;-85
2022/01/31 13:47:48;;;;;;;3.28;1.35;;;;;;;;;;5036315;28;20064;-84
2022/01/31 13:50:55;;;;;;;3.78;1.30;;;;;;;;;;5036314;28;20044;-84
2022/01/31 13:53:20;;;;;;;2.13;1.23;;;;;;;;;;5036388;28;20049;-84
2022/01/31 13:55:49;;;;;;;3.25;1.23;;;;;;;;;;5017955;28;20032;-84
2022/01/31 13:58:29;;;;;;;2.15;1.40;;;;;;;;;;5035062;28;20087;-84
2022/01/31 14:00:55;;;;;;;2.53;1.45;;;;;;;;;;5017536;28;20032;-84
2022/01/31 14:03:26;;;;;;;1.83;1.40;;;;;;;;;;5035370;28;20025;-85
2022/01/31 14:05:59;;;;;;;2.03;1.50;;;;;;;;;;5017649;28;20111;-84
2022/01/31 14:08:39;;;;;;;1.80;1.25;;;;;;;;;;5039124;28;20025;-83
2022/01/31 14:11:07;;;;;;;1.67;1.30;;;;;;;;;;5018886;28;20517;-86
2022/01/31 14:13:35;;;;;;;3.13;1.40;;;;;;;;;;5036058;28;20075;-86
2022/01/31 14:16:00;;;;;;;1.80;1.23;;;;;;;;;;5017901;28;20025;-85
2022/01/31 14:18:25;;;;;;;3.28;1.70;;;;;;;;;;5035257;28;20032;-85
2022/01/31 14:20:53;;;;;;;3.50;1.88;;;;;;;;;;5035580;28;20017;-85
2022/01/31 14:23:19;;;;;;;2.90;1.92;;;;;;;;;;5020591;28;20083;-83
2022/01/31 14:25:48;;;;;;;1.90;1.65;;;;;;;;;;5039884;28;20025;-83
2022/01/31 14:28:15;;;;;;;2.60;1.77;;;;;;;;;;5039546;28;20024;-85
2022/01/31 14:30:48;;;;;;;3.10;1.95;;;;;;;;;;5039817;28;20387;-85
2022/01/31 14:33:14;;;;;;;4.00;2.23;;;;;;;;;;5022362;28;20026;-85
2022/01/31 14:35:39;;;;;;;2.50;1.77;;;;;;;;;;5023433;28;20056;-83
2022/01/31 14:38:16;;;;;;;7.75;3.00;;;;;;;;;;5025307;28;20033;-87
2022/01/31 14:41:09;;;;;;;2.25;1.70;;;;;;;;;;5050081;28;20021;-86
2022/01/31 14:49:08;;;;;;;3.00;1.90;;;;;;;;;;5036616;28;20079;-86
2022/01/31 14:51:38;;;;;;;2.80;1.88;;;;;;;;;;5036294;28;20093;-87
2022/01/31 14:54:13;;;;;;;5.70;3.15;;;;;;;;;;5036067;28;20036;-87
2022/01/31 14:56:43;;;;;;;3.67;2.15;;;;;;;;;;5036966;28;20021;-85
2022/01/31 14:59:08;;;;;;;2.83;1.77;;;;;;;;;;5036104;28;20025;-85
2022/01/31 15:01:35;;;;;;;2.17;1.90;;;;;;;;;;5019151;28;20021;-87
2022/01/31 15:04:16;;;;;;;2.65;1.95;;;;;;;;;;5019867;28;20092;-87
2022/01/31 15:06:41;;;;;;;2.88;2.10;;;;;;;;;;5021652;28;20021;-88